createdAt,value
2016-10-12T00:00:07.878Z,80.37
2016-10-12T00:00:29.594Z,80.07
2016-10-12T00:00:51.309Z,79.89
2016-10-12T00:01:13.026Z,79.86
2016-10-12T00:01:34.738Z,79.71
2016-10-12T00:01:56.456Z,79.83
2016-10-12T00:02:18.169Z,79.74
2016-10-12T00:02:39.889Z,80.00
2016-10-12T00:03:01.597Z,80.24
2016-10-12T00:03:23.306Z,80.40
2016-10-12T00:03:45.021Z,80.34
2016-10-12T00:04:06.745Z,80.42
2016-10-12T00:04:28.460Z,80.52
2016-10-12T00:04:50.172Z,80.43
2016-10-12T00:05:11.888Z,80.68
2016-10-12T00:05:33.603Z,80.42
2016-10-12T00:05:55.319Z,80.17
2016-10-12T00:06:17.030Z,79.89
2016-10-12T00:06:38.746Z,80.21
2016-10-12T00:07:00.466Z,80.23
2016-10-12T00:07:22.188Z,80.25
2016-10-12T00:07:43.911Z,80.12
2016-10-12T00:08:05.631Z,80.26
2016-10-12T00:08:27.351Z,80.34
2016-10-12T00:08:49.064Z,80.33
2016-10-12T00:09:10.782Z,80.31
2016-10-12T00:09:32.506Z,80.27
2016-10-12T00:09:54.223Z,80.16
2016-10-12T00:10:15.936Z,80.01
2016-10-12T00:10:37.647Z,80.08
2016-10-12T00:10:59.355Z,79.97
2016-10-12T00:11:21.074Z,80.01
2016-10-12T00:11:42.794Z,80.28
2016-10-12T00:12:04.494Z,80.01
2016-10-12T00:12:26.209Z,80.01
2016-10-12T00:12:47.920Z,80.16
2016-10-12T00:13:09.643Z,80.19
2016-10-12T00:13:31.365Z,80.13
2016-10-12T00:13:55.696Z,80.38
2016-10-12T00:14:17.416Z,80.45
2016-10-12T00:14:39.130Z,80.42
2016-10-12T00:15:00.845Z,80.26
2016-10-12T00:15:22.563Z,80.27
2016-10-12T00:15:44.277Z,80.48
2016-10-12T00:16:05.993Z,80.61
2016-10-12T00:16:27.712Z,80.62
2016-10-12T00:16:49.427Z,80.72
2016-10-12T00:17:11.143Z,80.83
2016-10-12T00:17:32.863Z,81.32
2016-10-12T00:17:54.576Z,81.48
2016-10-12T00:18:16.297Z,81.34
2016-10-12T00:18:38.089Z,81.32
2016-10-12T00:18:59.819Z,81.58
2016-10-12T00:19:21.535Z,81.58
2016-10-12T00:19:43.248Z,81.79
2016-10-12T00:20:04.962Z,81.59
2016-10-12T00:20:26.674Z,81.75
2016-10-12T00:20:48.404Z,81.96
2016-10-12T00:21:10.124Z,82.06
2016-10-12T00:21:31.837Z,81.87
2016-10-12T00:21:53.562Z,81.76
2016-10-12T00:22:15.284Z,81.79
2016-10-12T00:22:36.999Z,81.85
2016-10-12T00:22:58.719Z,81.78
2016-10-12T00:23:20.433Z,81.80
2016-10-12T00:23:42.143Z,81.58
2016-10-12T00:24:03.855Z,81.52
2016-10-12T00:24:25.574Z,81.75
2016-10-12T00:24:47.290Z,81.81
2016-10-12T00:25:09.007Z,81.77
2016-10-12T00:25:30.715Z,81.77
2016-10-12T00:25:52.437Z,81.51
2016-10-12T00:26:45.228Z,80.98
2016-10-12T00:27:06.958Z,80.78
2016-10-12T00:27:28.676Z,80.97
2016-10-12T00:27:50.396Z,81.00
2016-10-12T00:28:12.105Z,80.82
2016-10-12T00:28:38.595Z,80.58
2016-10-12T00:29:00.307Z,80.59
2016-10-12T00:29:22.027Z,80.39
2016-10-12T00:29:43.740Z,80.44
2016-10-12T00:30:05.463Z,80.48
2016-10-12T00:30:27.192Z,80.68
2016-10-12T00:30:48.902Z,80.72
2016-10-12T00:31:10.624Z,80.67
2016-10-12T00:31:32.347Z,80.67
2016-10-12T00:31:54.064Z,80.52
2016-10-12T00:32:15.773Z,80.67
2016-10-12T00:32:37.490Z,80.81
2016-10-12T00:32:59.203Z,80.74
2016-10-12T00:33:20.916Z,80.70
2016-10-12T00:33:42.625Z,80.64
2016-10-12T00:34:04.337Z,80.68
2016-10-12T00:34:26.048Z,80.75
2016-10-12T00:34:47.759Z,80.84
2016-10-12T00:35:09.471Z,80.91
2016-10-12T00:35:31.186Z,80.91
2016-10-12T00:35:52.908Z,81.05
2016-10-12T00:36:14.616Z,81.14
2016-10-12T00:36:36.333Z,81.13
2016-10-12T00:36:58.038Z,81.13
2016-10-12T00:37:19.747Z,81.04
2016-10-12T00:37:41.461Z,81.06
2016-10-12T00:38:03.200Z,80.90
2016-10-12T00:38:24.911Z,80.78
2016-10-12T00:38:46.631Z,80.75
2016-10-12T00:39:08.342Z,81.13
2016-10-12T00:39:30.062Z,81.30
2016-10-12T00:39:51.773Z,81.09
2016-10-12T00:40:13.483Z,81.11
2016-10-12T00:40:35.194Z,81.19
2016-10-12T00:40:56.904Z,81.05
2016-10-12T00:41:18.622Z,80.76
2016-10-12T00:42:06.824Z,80.55
2016-10-12T00:42:28.551Z,80.55
2016-10-12T00:42:50.264Z,80.62
2016-10-12T00:43:11.971Z,80.56
2016-10-12T00:43:33.691Z,80.41
2016-10-12T00:43:55.408Z,80.36
2016-10-12T00:44:17.121Z,80.30
2016-10-12T00:44:38.835Z,80.32
2016-10-12T00:45:00.548Z,80.20
2016-10-12T00:45:22.263Z,80.20
2016-10-12T00:46:37.867Z,80.26
2016-10-12T00:46:59.582Z,80.19
2016-10-12T00:47:21.302Z,80.12
2016-10-12T00:47:43.017Z,80.19
2016-10-12T00:48:04.741Z,80.40
2016-10-12T00:48:26.461Z,80.58
2016-10-12T00:48:48.183Z,80.50
2016-10-12T00:49:09.914Z,80.50
2016-10-12T00:49:31.636Z,80.50
2016-10-12T00:49:53.356Z,80.49
2016-10-12T00:50:15.071Z,80.52
2016-10-12T00:50:36.781Z,80.57
2016-10-12T00:50:58.496Z,80.59
2016-10-12T00:51:20.212Z,80.49
2016-10-12T00:51:46.698Z,80.50
2016-10-12T00:52:08.422Z,80.84
2016-10-12T00:52:30.137Z,81.10
2016-10-12T00:52:51.847Z,80.90
2016-10-12T00:53:13.565Z,80.71
2016-10-12T00:53:35.269Z,80.69
2016-10-12T00:53:56.988Z,80.64
2016-10-12T00:54:18.711Z,80.66
2016-10-12T00:54:40.434Z,80.47
2016-10-12T00:55:02.140Z,80.55
2016-10-12T00:55:23.846Z,81.04
2016-10-12T00:56:16.629Z,81.09
2016-10-12T00:56:38.341Z,80.96
2016-10-12T00:57:00.064Z,80.89
2016-10-12T00:57:21.779Z,80.96
2016-10-12T00:57:43.493Z,81.00
2016-10-12T00:58:05.209Z,80.70
2016-10-12T00:58:26.925Z,80.70
2016-10-12T00:58:48.634Z,80.62
2016-10-12T00:59:10.343Z,80.67
2016-10-12T00:59:32.053Z,80.97
2016-10-12T00:59:53.774Z,80.97
2016-10-12T01:00:15.488Z,81.03
2016-10-12T01:00:37.195Z,81.13
2016-10-12T01:00:58.919Z,81.17
2016-10-12T01:01:20.632Z,81.05
2016-10-12T01:01:42.353Z,81.10
2016-10-12T01:02:04.070Z,81.13
2016-10-12T01:02:25.789Z,81.06
2016-10-12T01:02:47.502Z,81.04
2016-10-12T01:03:09.217Z,80.91
2016-10-12T01:03:30.924Z,81.00
2016-10-12T01:03:52.642Z,80.88
2016-10-12T01:04:14.353Z,80.79
2016-10-12T01:04:36.073Z,80.96
2016-10-12T01:04:57.782Z,81.02
2016-10-12T01:05:19.510Z,80.87
2016-10-12T01:05:41.223Z,80.87
2016-10-12T01:06:02.935Z,80.90
2016-10-12T01:06:24.649Z,80.97
2016-10-12T01:06:46.369Z,80.94
2016-10-12T01:07:08.079Z,80.91
2016-10-12T01:07:29.796Z,81.05
2016-10-12T01:07:51.515Z,81.14
2016-10-12T01:08:13.239Z,80.93
2016-10-12T01:08:39.724Z,80.84
2016-10-12T01:09:06.211Z,80.73
2016-10-12T01:09:32.694Z,80.78
2016-10-12T01:09:54.406Z,80.84
2016-10-12T01:10:16.112Z,80.77
2016-10-12T01:10:37.834Z,80.85
2016-10-12T01:10:59.549Z,80.84
2016-10-12T01:11:21.258Z,81.06
2016-10-12T01:11:42.983Z,81.45
2016-10-12T01:12:04.790Z,81.69
2016-10-12T01:12:26.499Z,81.70
2016-10-12T01:12:48.207Z,81.71
2016-10-12T01:13:09.920Z,81.57
2016-10-12T01:13:36.406Z,81.43
2016-10-12T01:13:58.118Z,81.29
2016-10-12T01:14:19.830Z,81.17
2016-10-12T01:14:41.537Z,81.13
2016-10-12T01:15:03.248Z,81.09
2016-10-12T01:15:24.968Z,81.16
2016-10-12T01:15:46.694Z,81.35
2016-10-12T01:16:08.405Z,81.37
2016-10-12T01:16:30.121Z,81.58
2016-10-12T01:16:51.833Z,81.65
2016-10-12T01:17:13.546Z,81.71
2016-10-12T01:17:35.259Z,81.43
2016-10-12T01:17:56.972Z,81.53
2016-10-12T01:18:18.690Z,81.63
2016-10-12T01:18:40.406Z,81.47
2016-10-12T01:19:02.130Z,81.39
2016-10-12T01:19:23.843Z,81.62
2016-10-12T01:19:45.555Z,81.51
2016-10-12T01:20:07.271Z,81.63
2016-10-12T01:20:28.990Z,81.52
2016-10-12T01:20:50.702Z,81.51
2016-10-12T01:21:12.413Z,81.59
2016-10-12T01:21:34.122Z,81.68
2016-10-12T01:21:55.842Z,81.80
2016-10-12T01:22:59.073Z,81.86
2016-10-12T01:23:28.261Z,81.87
2016-10-12T01:23:49.981Z,81.78
2016-10-12T01:24:11.701Z,81.72
2016-10-12T01:24:33.412Z,81.83
2016-10-12T01:24:55.128Z,81.92
2016-10-12T01:25:17.846Z,81.90
2016-10-12T01:25:39.561Z,81.93
2016-10-12T01:26:01.275Z,81.97
2016-10-12T01:26:22.986Z,81.83
2016-10-12T01:26:44.706Z,81.71
2016-10-12T01:27:08.967Z,82.12
2016-10-12T01:27:30.693Z,82.35
2016-10-12T01:27:52.409Z,82.71
2016-10-12T01:28:14.112Z,82.77
2016-10-12T01:28:35.832Z,82.57
2016-10-12T01:28:57.557Z,82.64
2016-10-12T01:29:19.269Z,82.54
2016-10-12T01:29:40.988Z,82.55
2016-10-12T01:30:02.705Z,82.45
2016-10-12T01:30:24.415Z,82.46
2016-10-12T01:30:46.131Z,82.12
2016-10-12T01:31:07.844Z,82.04
2016-10-12T01:31:34.335Z,81.93
2016-10-12T01:31:56.138Z,82.03
2016-10-12T01:32:17.852Z,82.17
2016-10-12T01:32:39.565Z,82.24
2016-10-12T01:33:01.276Z,82.36
2016-10-12T01:33:22.979Z,82.53
2016-10-12T01:33:44.698Z,82.29
2016-10-12T01:34:06.421Z,82.26
2016-10-12T01:34:28.137Z,82.15
2016-10-12T01:34:49.861Z,82.17
2016-10-12T01:35:11.571Z,82.15
2016-10-12T01:35:33.281Z,82.18
2016-10-12T01:35:54.994Z,82.04
2016-10-12T01:36:16.714Z,82.04
2016-10-12T01:36:38.425Z,82.22
2016-10-12T01:37:00.139Z,82.44
2016-10-12T01:37:21.851Z,82.54
2016-10-12T01:37:43.564Z,82.61
2016-10-12T01:38:05.282Z,82.69
2016-10-12T01:38:26.989Z,82.85
2016-10-12T01:38:48.705Z,82.90
2016-10-12T01:39:10.433Z,83.08
2016-10-12T01:39:32.145Z,83.08
2016-10-12T01:39:53.856Z,82.98
2016-10-12T01:40:15.564Z,82.75
2016-10-12T01:40:37.279Z,82.75
2016-10-12T01:40:58.990Z,82.71
2016-10-12T01:41:20.709Z,82.64
2016-10-12T01:41:42.412Z,82.64
2016-10-12T01:42:05.127Z,82.48
2016-10-12T01:42:26.853Z,82.38
2016-10-12T01:42:48.570Z,82.22
2016-10-12T01:43:10.280Z,82.07
2016-10-12T01:43:31.986Z,81.93
2016-10-12T01:43:53.696Z,82.18
2016-10-12T01:44:15.411Z,82.39
2016-10-12T01:44:37.123Z,82.51
2016-10-12T01:44:58.833Z,82.61
2016-10-12T01:45:25.319Z,82.35
2016-10-12T01:45:47.028Z,82.06
2016-10-12T01:46:08.745Z,82.15
2016-10-12T01:46:30.459Z,82.38
2016-10-12T01:46:52.172Z,82.27
2016-10-12T01:47:13.880Z,82.26
2016-10-12T01:47:38.383Z,82.37
2016-10-12T01:48:00.101Z,82.40
2016-10-12T01:48:21.814Z,82.53
2016-10-12T01:48:43.531Z,82.51
2016-10-12T01:49:05.245Z,82.64
2016-10-12T01:49:26.958Z,82.63
2016-10-12T01:49:48.676Z,82.42
2016-10-12T01:50:10.388Z,82.53
2016-10-12T01:50:32.097Z,82.59
2016-10-12T01:50:53.813Z,82.73
2016-10-12T01:51:15.530Z,82.81
2016-10-12T01:51:37.336Z,82.80
2016-10-12T01:51:59.047Z,82.60
2016-10-12T01:52:20.761Z,82.32
2016-10-12T01:52:42.469Z,82.29
2016-10-12T01:53:04.176Z,82.38
2016-10-12T01:53:25.887Z,82.55
2016-10-12T01:53:47.697Z,82.53
2016-10-12T01:54:09.410Z,82.82
2016-10-12T01:54:31.126Z,82.93
2016-10-12T01:54:52.845Z,82.88
2016-10-12T01:55:14.557Z,82.80
2016-10-12T01:55:36.263Z,82.98
2016-10-12T01:55:57.973Z,82.63
2016-10-12T01:56:19.691Z,82.50
2016-10-12T01:56:41.400Z,82.53
2016-10-12T01:57:03.110Z,82.56
2016-10-12T01:57:24.827Z,82.58
2016-10-12T01:57:46.552Z,82.57
2016-10-12T01:58:13.036Z,82.72
2016-10-12T01:58:34.757Z,83.08
2016-10-12T01:58:56.467Z,83.03
2016-10-12T01:59:18.197Z,83.16
2016-10-12T01:59:39.913Z,82.94
2016-10-12T02:00:01.636Z,83.04
2016-10-12T02:00:23.349Z,83.16
2016-10-12T02:00:45.077Z,83.33
2016-10-12T02:01:06.790Z,83.53
2016-10-12T02:01:28.503Z,83.58
2016-10-12T02:01:50.235Z,83.46
2016-10-12T02:02:11.947Z,83.30
2016-10-12T02:02:33.653Z,83.15
2016-10-12T02:02:55.373Z,83.00
2016-10-12T02:03:17.086Z,82.83
2016-10-12T02:03:38.804Z,82.84
2016-10-12T02:04:00.521Z,82.88
2016-10-12T02:04:22.237Z,82.85
2016-10-12T02:04:43.942Z,82.93
2016-10-12T02:05:05.660Z,83.07
2016-10-12T02:06:08.177Z,83.17
2016-10-12T02:06:29.896Z,82.95
2016-10-12T02:06:52.607Z,82.81
2016-10-12T02:07:14.329Z,82.68
2016-10-12T02:07:36.041Z,82.56
2016-10-12T02:07:57.752Z,82.53
2016-10-12T02:08:19.465Z,82.58
2016-10-12T02:08:41.176Z,82.52
2016-10-12T02:09:02.887Z,82.60
2016-10-12T02:09:24.591Z,82.88
2016-10-12T02:09:46.304Z,83.14
2016-10-12T02:10:08.014Z,83.09
2016-10-12T02:10:29.731Z,83.13
2016-10-12T02:10:51.438Z,82.98
2016-10-12T02:11:13.160Z,82.81
2016-10-12T02:11:34.874Z,83.04
2016-10-12T02:11:56.591Z,83.41
2016-10-12T02:12:18.300Z,83.61
2016-10-12T02:12:40.011Z,83.68
2016-10-12T02:13:01.722Z,83.70
2016-10-12T02:13:23.447Z,83.81
2016-10-12T02:13:45.173Z,83.85
2016-10-12T02:14:06.879Z,83.76
2016-10-12T02:14:28.590Z,83.61
2016-10-12T02:14:50.297Z,83.63
2016-10-12T02:15:12.017Z,83.69
2016-10-12T02:15:33.742Z,83.71
2016-10-12T02:15:55.465Z,83.72
2016-10-12T02:16:17.178Z,83.88
2016-10-12T02:16:38.892Z,83.90
2016-10-12T02:17:00.617Z,83.55
2016-10-12T02:17:22.327Z,83.39
2016-10-12T02:17:44.040Z,83.17
2016-10-12T02:18:05.748Z,83.00
2016-10-12T02:18:27.464Z,82.87
2016-10-12T02:18:49.172Z,82.90
2016-10-12T02:19:10.886Z,83.07
2016-10-12T02:19:32.599Z,83.40
2016-10-12T02:19:54.319Z,83.50
2016-10-12T02:20:16.033Z,83.46
2016-10-12T02:20:37.790Z,83.34
2016-10-12T02:20:59.501Z,83.24
2016-10-12T02:21:21.214Z,83.11
2016-10-12T02:21:42.932Z,82.96
2016-10-12T02:22:04.640Z,82.86
2016-10-12T02:22:26.349Z,82.83
2016-10-12T02:22:48.064Z,82.81
2016-10-12T02:23:09.791Z,82.75
2016-10-12T02:23:31.496Z,82.80
2016-10-12T02:23:53.219Z,82.75
2016-10-12T02:24:14.937Z,82.69
2016-10-12T02:24:36.646Z,82.71
2016-10-12T02:24:58.352Z,82.67
2016-10-12T02:25:20.071Z,82.77
2016-10-12T02:25:41.793Z,82.72
2016-10-12T02:26:03.506Z,82.61
2016-10-12T02:26:25.214Z,82.43
2016-10-12T02:26:46.934Z,82.40
2016-10-12T02:27:08.645Z,82.51
2016-10-12T02:27:30.357Z,82.80
2016-10-12T02:27:56.849Z,83.10
2016-10-12T02:28:18.558Z,83.37
2016-10-12T02:28:40.272Z,83.35
2016-10-12T02:29:01.984Z,83.14
2016-10-12T02:29:23.705Z,83.08
2016-10-12T02:29:45.420Z,83.00
2016-10-12T02:30:07.138Z,82.94
2016-10-12T02:30:28.939Z,82.93
2016-10-12T02:30:50.652Z,82.93
2016-10-12T02:31:12.367Z,82.75
2016-10-12T02:31:34.080Z,82.64
2016-10-12T02:31:56.781Z,82.53
2016-10-12T02:32:18.508Z,82.66
2016-10-12T02:32:40.232Z,82.92
2016-10-12T02:33:01.953Z,82.98
2016-10-12T02:33:23.667Z,82.96
2016-10-12T02:33:45.374Z,82.92
2016-10-12T02:34:07.085Z,83.00
2016-10-12T02:34:28.810Z,82.98
2016-10-12T02:34:50.533Z,83.00
2016-10-12T02:35:12.248Z,83.08
2016-10-12T02:35:33.961Z,83.04
2016-10-12T02:35:55.679Z,82.93
2016-10-12T02:36:17.397Z,82.86
2016-10-12T02:36:39.119Z,82.84
2016-10-12T02:37:00.821Z,82.98
2016-10-12T02:37:22.555Z,83.26
2016-10-12T02:37:44.265Z,83.43
2016-10-12T02:38:05.980Z,83.46
2016-10-12T02:38:27.692Z,83.52
2016-10-12T02:38:49.402Z,83.49
2016-10-12T02:39:11.111Z,83.73
2016-10-12T02:39:32.829Z,83.65
2016-10-12T02:39:54.536Z,83.53
2016-10-12T02:40:16.248Z,83.39
2016-10-12T02:40:37.956Z,83.46
2016-10-12T02:40:59.673Z,83.55
2016-10-12T02:41:21.380Z,83.42
2016-10-12T02:41:43.093Z,83.29
2016-10-12T02:42:04.812Z,83.29
2016-10-12T02:42:26.522Z,83.10
2016-10-12T02:42:48.233Z,82.92
2016-10-12T02:43:09.947Z,83.00
2016-10-12T02:43:31.664Z,83.13
2016-10-12T02:43:53.371Z,83.09
2016-10-12T02:44:15.086Z,83.13
2016-10-12T02:44:36.797Z,83.34
2016-10-12T02:44:58.519Z,83.37
2016-10-12T02:45:20.241Z,83.50
2016-10-12T02:45:41.948Z,83.51
2016-10-12T02:46:03.662Z,83.45
2016-10-12T02:46:25.383Z,83.45
2016-10-12T02:46:47.090Z,83.49
2016-10-12T02:47:08.797Z,83.57
2016-10-12T02:47:30.513Z,83.52
2016-10-12T02:47:52.227Z,83.53
2016-10-12T02:48:13.940Z,83.63
2016-10-12T02:48:35.654Z,83.69
2016-10-12T02:48:57.368Z,83.49
2016-10-12T02:49:19.082Z,83.44
2016-10-12T02:49:40.793Z,83.41
2016-10-12T02:50:02.520Z,83.38
2016-10-12T02:50:24.245Z,83.30
2016-10-12T02:50:45.961Z,83.33
2016-10-12T02:51:07.684Z,83.33
2016-10-12T02:51:29.395Z,83.58
2016-10-12T02:51:51.102Z,83.62
2016-10-12T02:52:12.823Z,83.58
2016-10-12T02:52:34.537Z,83.58
2016-10-12T02:52:56.252Z,83.47
2016-10-12T02:53:17.964Z,83.60
2016-10-12T02:53:39.678Z,83.69
2016-10-12T02:54:01.390Z,83.55
2016-10-12T02:54:54.187Z,83.31
2016-10-12T02:55:15.905Z,83.50
2016-10-12T02:55:37.615Z,83.64
2016-10-12T02:55:59.329Z,83.86
2016-10-12T02:56:21.047Z,84.02
2016-10-12T02:56:42.762Z,84.23
2016-10-12T02:57:04.474Z,84.33
2016-10-12T02:57:26.182Z,84.36
2016-10-12T02:57:47.906Z,84.28
2016-10-12T02:58:09.620Z,84.23
2016-10-12T02:58:31.330Z,84.22
2016-10-12T02:58:53.047Z,84.36
2016-10-12T02:59:14.763Z,84.39
2016-10-12T02:59:36.472Z,84.53
2016-10-12T02:59:58.189Z,84.74
2016-10-12T03:00:19.907Z,84.87
2016-10-12T03:00:41.626Z,85.08
2016-10-12T03:01:06.154Z,85.31
2016-10-12T03:01:27.863Z,85.42
2016-10-12T03:01:49.598Z,85.39
2016-10-12T03:02:11.307Z,85.36
2016-10-12T03:02:33.032Z,85.09
2016-10-12T03:02:54.747Z,84.96
2016-10-12T03:03:16.467Z,84.96
2016-10-12T03:03:38.180Z,84.79
2016-10-12T03:03:59.891Z,84.86
2016-10-12T03:04:21.612Z,84.88
2016-10-12T03:04:43.332Z,84.97
2016-10-12T03:05:05.043Z,84.98
2016-10-12T03:05:26.761Z,84.86
2016-10-12T03:05:48.476Z,84.66
2016-10-12T03:06:10.184Z,84.36
2016-10-12T03:06:31.897Z,84.25
2016-10-12T03:06:53.614Z,84.13
2016-10-12T03:07:15.326Z,84.08
2016-10-12T03:07:37.040Z,84.06
2016-10-12T03:07:58.761Z,84.06
2016-10-12T03:08:20.470Z,84.09
2016-10-12T03:08:42.179Z,84.20
2016-10-12T03:09:03.893Z,84.03
2016-10-12T03:09:25.608Z,83.95
2016-10-12T03:09:47.332Z,83.88
2016-10-12T03:10:09.047Z,83.84
2016-10-12T03:10:40.307Z,83.89
2016-10-12T03:11:02.031Z,83.83
2016-10-12T03:11:23.742Z,83.69
2016-10-12T03:11:45.455Z,83.82
2016-10-12T03:12:07.164Z,83.80
2016-10-12T03:12:28.876Z,83.90
2016-10-12T03:12:50.591Z,83.98
2016-10-12T03:13:12.308Z,84.11
2016-10-12T03:13:34.023Z,83.94
2016-10-12T03:13:55.736Z,83.90
2016-10-12T03:14:17.450Z,83.99
2016-10-12T03:14:39.163Z,84.10
2016-10-12T03:15:00.879Z,84.12
2016-10-12T03:15:22.601Z,84.18
2016-10-12T03:15:44.312Z,84.37
2016-10-12T03:16:06.020Z,84.50
2016-10-12T03:16:27.731Z,84.54
2016-10-12T03:16:49.443Z,84.49
2016-10-12T03:17:11.155Z,84.54
2016-10-12T03:17:32.868Z,84.40
2016-10-12T03:17:54.589Z,84.50
2016-10-12T03:18:16.297Z,84.63
2016-10-12T03:18:38.019Z,84.58
2016-10-12T03:18:59.735Z,84.39
2016-10-12T03:19:21.447Z,84.42
2016-10-12T03:19:43.164Z,84.46
2016-10-12T03:20:09.651Z,84.66
2016-10-12T03:20:31.368Z,84.62
2016-10-12T03:20:53.078Z,84.66
2016-10-12T03:21:14.792Z,84.75
2016-10-12T03:21:36.512Z,84.77
2016-10-12T03:21:58.233Z,84.99
2016-10-12T03:22:19.944Z,84.69
2016-10-12T03:22:41.658Z,84.52
2016-10-12T03:23:03.372Z,84.37
2016-10-12T03:23:25.085Z,84.09
2016-10-12T03:23:46.800Z,84.14
2016-10-12T03:24:08.513Z,84.22
2016-10-12T03:24:30.232Z,84.25
2016-10-12T03:24:51.945Z,84.14
2016-10-12T03:25:13.661Z,84.22
2016-10-12T03:25:35.374Z,84.08
2016-10-12T03:25:57.085Z,84.10
2016-10-12T03:26:18.794Z,83.92
2016-10-12T03:26:40.510Z,83.93
2016-10-12T03:27:02.229Z,83.91
2016-10-12T03:27:23.939Z,83.93
2016-10-12T03:27:45.650Z,84.02
2016-10-12T03:28:07.384Z,83.85
2016-10-12T03:28:29.100Z,83.81
2016-10-12T03:28:50.813Z,83.77
2016-10-12T03:29:12.522Z,83.73
2016-10-12T03:29:34.235Z,83.88
2016-10-12T03:29:55.953Z,84.21
2016-10-12T03:30:17.664Z,84.68
2016-10-12T03:30:39.383Z,84.97
2016-10-12T03:31:01.106Z,85.12
2016-10-12T03:31:22.827Z,85.38
2016-10-12T03:31:44.542Z,85.46
2016-10-12T03:32:06.255Z,85.50
2016-10-12T03:32:27.975Z,85.54
2016-10-12T03:32:49.701Z,85.38
2016-10-12T03:33:11.422Z,85.23
2016-10-12T03:33:33.131Z,85.15
2016-10-12T03:33:54.848Z,85.25
2016-10-12T03:34:16.567Z,85.00
2016-10-12T03:34:38.282Z,85.00
2016-10-12T03:34:59.988Z,85.02
2016-10-12T03:35:21.696Z,84.79
2016-10-12T03:35:43.425Z,84.76
2016-10-12T03:36:05.146Z,84.89
2016-10-12T03:36:26.864Z,85.08
2016-10-12T03:36:48.577Z,85.15
2016-10-12T03:37:10.285Z,85.04
2016-10-12T03:37:32.001Z,84.96
2016-10-12T03:37:53.718Z,84.85
2016-10-12T03:38:15.429Z,84.75
2016-10-12T03:38:37.149Z,84.83
2016-10-12T03:38:58.853Z,84.59
2016-10-12T03:39:20.574Z,84.57
2016-10-12T03:39:42.300Z,84.45
2016-10-12T03:40:04.019Z,84.52
2016-10-12T03:40:25.733Z,84.69
2016-10-12T03:40:47.463Z,84.72
2016-10-12T03:41:09.167Z,84.60
2016-10-12T03:41:30.878Z,84.67
2016-10-12T03:41:52.603Z,84.59
2016-10-12T03:42:14.319Z,84.44
2016-10-12T03:42:36.036Z,84.58
2016-10-12T03:42:57.755Z,84.35
2016-10-12T03:43:24.247Z,84.47
2016-10-12T03:43:45.959Z,84.35
2016-10-12T03:44:07.668Z,84.54
2016-10-12T03:44:29.382Z,84.95
2016-10-12T03:44:55.870Z,84.98
2016-10-12T03:45:17.581Z,84.83
2016-10-12T03:45:39.298Z,84.80
2016-10-12T03:46:01.009Z,84.76
2016-10-12T03:46:22.729Z,84.89
2016-10-12T03:46:44.449Z,85.10
2016-10-12T03:47:06.160Z,85.12
2016-10-12T03:47:27.881Z,85.15
2016-10-12T03:47:49.599Z,85.16
2016-10-12T03:48:11.308Z,85.26
2016-10-12T03:48:33.026Z,85.09
2016-10-12T03:48:54.752Z,84.79
2016-10-12T03:49:16.464Z,84.73
2016-10-12T03:49:38.174Z,84.74
2016-10-12T03:49:59.898Z,84.97
2016-10-12T03:50:21.610Z,85.07
2016-10-12T03:50:43.339Z,85.17
2016-10-12T03:51:05.056Z,85.33
2016-10-12T03:51:26.769Z,85.50
2016-10-12T03:51:48.479Z,85.81
2016-10-12T03:52:10.195Z,85.65
2016-10-12T03:52:31.914Z,85.42
2016-10-12T03:52:53.633Z,85.61
2016-10-12T03:53:15.345Z,85.65
2016-10-12T03:53:37.062Z,85.58
2016-10-12T03:53:58.842Z,85.46
2016-10-12T03:54:20.562Z,85.39
2016-10-12T03:54:42.273Z,85.18
2016-10-12T03:55:03.983Z,84.93
2016-10-12T03:55:25.699Z,84.87
2016-10-12T03:55:47.414Z,84.93
2016-10-12T03:56:09.127Z,85.01
2016-10-12T03:56:30.835Z,85.18
2016-10-12T03:56:52.553Z,85.03
2016-10-12T03:57:14.271Z,85.13
2016-10-12T03:57:36.070Z,85.20
2016-10-12T03:57:57.784Z,85.16
2016-10-12T03:58:19.502Z,85.09
2016-10-12T03:58:41.216Z,84.98
2016-10-12T03:59:02.931Z,84.65
2016-10-12T03:59:24.645Z,84.61
2016-10-12T03:59:46.368Z,84.62
2016-10-12T04:00:08.079Z,84.55
2016-10-12T04:00:29.792Z,84.64
2016-10-12T04:00:51.506Z,84.65
2016-10-12T04:01:13.215Z,84.81
2016-10-12T04:01:34.926Z,84.86
2016-10-12T04:01:56.642Z,84.99
2016-10-12T04:02:18.353Z,85.08
2016-10-12T04:02:40.070Z,85.01
2016-10-12T04:03:01.779Z,85.19
2016-10-12T04:03:23.491Z,85.19
2016-10-12T04:03:45.213Z,85.15
2016-10-12T04:04:06.926Z,85.08
2016-10-12T04:04:28.638Z,85.11
2016-10-12T04:04:50.352Z,84.96
2016-10-12T04:05:12.070Z,84.72
2016-10-12T04:05:33.784Z,84.80
2016-10-12T04:05:55.508Z,84.61
2016-10-12T04:06:17.211Z,84.67
2016-10-12T04:06:38.924Z,84.59
2016-10-12T04:07:00.635Z,84.88
2016-10-12T04:07:22.353Z,85.09
2016-10-12T04:07:44.074Z,85.11
2016-10-12T04:08:05.797Z,85.10
2016-10-12T04:08:27.518Z,85.12
2016-10-12T04:08:49.234Z,85.13
2016-10-12T04:09:10.960Z,85.19
2016-10-12T04:09:32.680Z,85.42
2016-10-12T04:09:56.825Z,85.53
2016-10-12T04:11:26.023Z,85.51
2016-10-12T04:11:47.744Z,85.47
2016-10-12T04:12:09.459Z,85.25
2016-10-12T04:12:31.179Z,85.29
2016-10-12T04:12:52.889Z,85.25
2016-10-12T04:13:14.613Z,85.26
2016-10-12T04:13:36.335Z,85.33
2016-10-12T04:13:58.070Z,85.20
2016-10-12T04:14:19.803Z,85.34
2016-10-12T04:14:41.509Z,85.14
2016-10-12T04:15:03.220Z,85.08
2016-10-12T04:15:24.946Z,85.19
2016-10-12T04:15:47.657Z,85.29
2016-10-12T04:16:09.369Z,85.43
2016-10-12T04:16:31.143Z,85.54
2016-10-12T04:16:53.856Z,85.49
2016-10-12T04:17:15.578Z,85.55
2016-10-12T04:17:37.322Z,85.40
2016-10-12T04:17:59.038Z,85.00
2016-10-12T04:18:20.764Z,85.02
2016-10-12T04:18:42.481Z,84.98
2016-10-12T04:19:04.193Z,84.76
2016-10-12T04:19:25.910Z,84.49
2016-10-12T04:19:47.629Z,84.57
2016-10-12T04:20:09.351Z,84.50
2016-10-12T04:20:31.069Z,84.64
2016-10-12T04:20:52.777Z,84.85
2016-10-12T04:21:14.504Z,84.73
2016-10-12T04:21:36.215Z,84.70
2016-10-12T04:21:57.940Z,84.58
2016-10-12T04:22:19.653Z,84.45
2016-10-12T04:22:41.365Z,84.51
2016-10-12T04:23:03.086Z,84.56
2016-10-12T04:23:24.801Z,84.44
2016-10-12T04:23:46.520Z,84.37
2016-10-12T04:24:08.232Z,84.49
2016-10-12T04:24:29.950Z,84.94
2016-10-12T04:24:51.663Z,85.20
2016-10-12T04:25:14.391Z,85.36
2016-10-12T04:25:36.116Z,85.49
2016-10-12T04:25:57.832Z,85.32
2016-10-12T04:26:19.549Z,85.50
2016-10-12T04:26:41.280Z,85.22
2016-10-12T04:27:03.004Z,85.27
2016-10-12T04:27:24.726Z,85.28
2016-10-12T04:27:46.509Z,85.65
2016-10-12T04:28:08.226Z,85.85
2016-10-12T04:28:29.952Z,85.72
2016-10-12T04:28:51.667Z,85.53
2016-10-12T04:29:13.384Z,85.46
2016-10-12T04:29:35.105Z,85.35
2016-10-12T04:29:56.817Z,85.32
2016-10-12T04:30:18.536Z,85.39
2016-10-12T04:30:40.254Z,85.37
2016-10-12T04:31:02.001Z,85.25
2016-10-12T04:31:23.712Z,85.08
2016-10-12T04:31:45.426Z,84.91
2016-10-12T04:32:07.139Z,84.86
2016-10-12T04:32:28.859Z,84.90
2016-10-12T04:32:50.581Z,84.88
2016-10-12T04:33:12.286Z,84.82
2016-10-12T04:33:34.001Z,84.66
2016-10-12T04:33:55.715Z,84.65
2016-10-12T04:34:17.435Z,84.67
2016-10-12T04:34:39.164Z,84.39
2016-10-12T04:35:00.879Z,84.38
2016-10-12T04:35:22.594Z,84.46
2016-10-12T04:36:10.631Z,84.36
2016-10-12T04:36:32.359Z,84.51
2016-10-12T04:36:54.072Z,84.48
2016-10-12T04:37:16.791Z,84.38
2016-10-12T04:37:38.510Z,84.45
2016-10-12T04:38:00.221Z,84.26
2016-10-12T04:38:22.951Z,84.46
2016-10-12T04:38:45.670Z,84.38
2016-10-12T04:39:07.382Z,84.38
2016-10-12T04:40:05.136Z,84.40
2016-10-12T04:41:39.922Z,84.48
2016-10-12T04:42:01.642Z,84.38
2016-10-12T04:42:23.412Z,84.29
2016-10-12T04:42:45.141Z,84.03
2016-10-12T04:43:06.877Z,83.97
2016-10-12T04:43:28.596Z,84.07
2016-10-12T04:43:50.319Z,84.12
2016-10-12T04:44:12.026Z,84.17
2016-10-12T04:44:33.741Z,84.21
2016-10-12T04:44:55.460Z,84.08
2016-10-12T04:45:17.169Z,84.05
2016-10-12T04:45:38.877Z,84.00
2016-10-12T04:46:00.601Z,83.87
2016-10-12T04:46:22.323Z,83.82
2016-10-12T04:46:44.041Z,83.95
2016-10-12T04:47:05.755Z,84.04
2016-10-12T04:47:27.461Z,84.15
2016-10-12T04:47:49.179Z,84.69
2016-10-12T04:48:10.915Z,84.95
2016-10-12T04:48:32.640Z,85.15
2016-10-12T04:48:54.358Z,85.32